Time;durP1;ratioP1;P1;durP2;ratioP2;P2;SDS_P1;SDS_P2;PMS_P1;PMS_P2;Temp;Humidity;BMP_temperature;BMP_pressure;BME280_temperature;BME280_humidity;BME280_pressure;Samples;Min_cycle;Max_cycle;Signal;HPM_P1;HPM_P2
2022/06/25 00:00:12;;;;;;;9.52;2.85;;;;;;;24.18;58.98;100805.53;2112109;27;20406;-73
2022/06/25 00:01:34;;;;;;;9.93;2.72;;;;;;;24.17;58.89;100804.66;2095426;28;20122;-73
2022/06/25 00:02:57;;;;;;;7.30;2.38;;;;;;;24.16;59.25;100804.72;2097585;28;20460;-73
2022/06/25 00:05:59;;;;;;;11.85;2.78;;;;;;;24.13;59.38;100811.13;2112194;28;20129;-73
2022/06/25 00:07:21;;;;;;;9.57;2.50;;;;;;;24.14;59.47;100806.63;2103833;28;20457;-73
2022/06/25 00:08:46;;;;;;;8.65;2.55;;;;;;;24.12;59.58;100809.38;2104232;28;20044;-74
2022/06/25 00:10:10;;;;;;;9.48;2.63;;;;;;;24.12;59.35;100803.09;2108958;28;20039;-74
2022/06/25 00:13:12;;;;;;;6.03;2.63;;;;;;;24.09;59.58;100793.28;2105243;28;20483;-73
2022/06/25 00:14:34;;;;;;;5.32;2.42;;;;;;;24.09;59.83;100787.03;2098092;28;20075;-73
2022/06/25 00:15:56;;;;;;;8.57;3.03;;;;;;;24.08;59.97;100778.06;2106341;28;20182;-73
2022/06/25 00:17:18;;;;;;;8.18;2.40;;;;;;;24.08;60.06;100779.88;2108624;28;20098;-74
2022/06/25 00:18:42;;;;;;;6.30;2.35;;;;;;;24.08;60.10;100777.19;2108074;28;20040;-74
2022/06/25 00:20:07;;;;;;;5.65;2.38;;;;;;;24.06;60.23;100774.53;2093700;28;20052;-73
2022/06/25 00:21:29;;;;;;;6.93;2.90;;;;;;;24.04;60.05;100771.03;2103725;28;20088;-73
2022/06/25 00:22:51;;;;;;;6.85;2.58;;;;;;;24.03;60.19;100774.66;2118635;27;20043;-73
2022/06/25 00:24:16;;;;;;;7.78;2.80;;;;;;;24.01;60.21;100776.56;2103633;28;20657;-73
2022/06/25 00:25:39;;;;;;;11.27;3.63;;;;;;;24.01;60.32;100778.38;2103598;28;20052;-73
2022/06/25 00:27:01;;;;;;;9.35;2.65;;;;;;;24.00;60.43;100782.00;2093681;28;20071;-73
2022/06/25 00:28:22;;;;;;;22.48;4.57;;;;;;;24.00;60.40;100779.31;2110457;27;20055;-73
2022/06/25 00:29:45;;;;;;;4.95;2.35;;;;;;;23.98;60.53;100773.97;2106134;28;20077;-73
2022/06/25 00:31:07;;;;;;;5.88;2.30;;;;;;;23.99;60.52;100783.81;2098650;28;20067;-74
2022/06/25 00:32:29;;;;;;;9.35;2.30;;;;;;;23.99;60.58;100782.94;2101630;28;20039;-73
2022/06/25 00:33:53;;;;;;;6.32;2.40;;;;;;;23.98;60.58;100775.78;2095743;28;20044;-73
2022/06/25 00:35:16;;;;;;;9.23;2.50;;;;;;;23.96;60.71;100775.81;2100977;28;20143;-73
2022/06/25 00:36:39;;;;;;;6.72;2.70;;;;;;;23.95;60.71;100770.53;2109671;28;20051;-73
2022/06/25 00:38:01;;;;;;;5.30;2.47;;;;;;;23.93;60.62;100778.66;2104597;28;20040;-73
2022/06/25 00:39:24;;;;;;;9.63;2.72;;;;;;;23.93;60.71;100785.88;2098038;28;20072;-73
2022/06/25 00:40:47;;;;;;;8.55;2.72;;;;;;;23.91;60.66;100787.75;2098782;28;20086;-74
2022/06/25 00:42:10;;;;;;;9.60;2.60;;;;;;;23.91;60.61;100787.75;2108088;28;20067;-73
2022/06/25 00:43:32;;;;;;;9.35;2.78;;;;;;;23.90;60.85;100791.38;2101359;28;20059;-73
2022/06/25 00:44:55;;;;;;;9.73;2.88;;;;;;;23.89;60.69;100789.66;2117421;28;20133;-73
2022/06/25 00:46:17;;;;;;;6.35;2.05;;;;;;;23.88;60.55;100794.16;2106816;28;20075;-73
2022/06/25 00:47:40;;;;;;;7.50;2.38;;;;;;;23.88;60.50;100799.53;2094992;28;20040;-73
2022/06/25 00:49:03;;;;;;;6.20;2.50;;;;;;;23.89;60.25;100801.31;2100731;28;20044;-73
2022/06/25 00:50:26;;;;;;;9.32;2.47;;;;;;;23.87;60.07;100797.78;2093472;28;20083;-73
2022/06/25 00:51:50;;;;;;;5.53;2.20;;;;;;;23.87;60.07;100791.50;2110537;28;20058;-73
2022/06/25 00:53:14;;;;;;;8.73;3.60;;;;;;;23.88;59.97;100787.88;2106875;28;20048;-73
2022/06/25 00:54:39;;;;;;;9.07;2.58;;;;;;;23.90;59.71;100794.06;2093654;28;20044;-73
2022/06/25 00:56:02;;;;;;;5.72;2.92;;;;;;;23.91;59.70;100793.13;2107897;28;20050;-73
2022/06/25 00:57:25;;;;;;;5.55;2.38;;;;;;;23.90;59.61;100791.38;2110242;27;20093;-73
2022/06/25 00:58:48;;;;;;;8.63;2.33;;;;;;;23.90;59.65;100788.69;2114992;28;20558;-73
2022/06/25 01:00:12;;;;;;;6.45;2.72;;;;;;;23.91;59.55;100798.53;2095359;28;20139;-73
2022/06/25 01:01:36;;;;;;;10.15;3.40;;;;;;;23.91;59.69;100796.72;2100782;28;20040;-73
2022/06/25 01:02:58;;;;;;;6.57;2.58;;;;;;;23.91;59.82;100801.22;2102743;28;20047;-74
2022/06/25 01:04:21;;;;;;;6.18;2.38;;;;;;;23.90;59.87;100797.66;2112150;28;20066;-73
2022/06/25 01:05:44;;;;;;;9.02;2.38;;;;;;;23.89;59.69;100795.91;2102302;28;20118;-73
2022/06/25 01:07:06;;;;;;;8.85;2.22;;;;;;;23.88;59.60;100794.16;2099696;28;20407;-73
2022/06/25 01:08:30;;;;;;;7.90;3.55;;;;;;;23.88;59.47;100790.56;2109429;28;20446;-73
2022/06/25 01:09:53;;;;;;;9.82;2.63;;;;;;;23.87;59.65;100784.31;2111925;28;20059;-73
2022/06/25 01:11:14;;;;;;;5.68;2.33;;;;;;;23.88;59.58;100779.78;2104360;28;20044;-74
2022/06/25 01:12:38;;;;;;;5.32;2.20;;;;;;;23.86;59.62;100784.34;2108380;28;20413;-73
2022/06/25 01:14:05;;;;;;;6.70;2.47;;;;;;;23.85;59.86;100786.16;2094404;28;20071;-73
2022/06/25 01:15:28;;;;;;;9.52;2.60;;;;;;;23.84;59.86;100789.78;2109472;28;20040;-73
2022/06/25 01:16:50;;;;;;;6.57;2.40;;;;;;;23.83;59.71;100783.53;2092910;28;20043;-73
2022/06/25 01:18:12;;;;;;;8.32;2.35;;;;;;;23.81;59.88;100785.41;2109271;28;20487;-73
2022/06/25 01:19:37;;;;;;;4.75;2.40;;;;;;;23.81;59.96;100787.25;2102077;28;20044;-73
2022/06/25 01:21:00;;;;;;;7.28;2.50;;;;;;;23.79;60.00;100795.38;2095595;28;20515;-74
2022/06/25 01:22:25;;;;;;;10.45;2.28;;;;;;;23.79;59.82;100795.38;2094363;28;20780;-73
2022/06/25 01:23:47;;;;;;;9.45;2.90;;;;;;;23.78;59.94;100796.31;2099217;28;20063;-74
2022/06/25 01:25:10;;;;;;;7.05;2.35;;;;;;;23.79;59.92;100800.78;2109103;28;20446;-73
2022/06/25 01:26:35;;;;;;;10.85;2.72;;;;;;;23.78;59.78;100799.00;2095155;28;20106;-73
2022/06/25 01:27:57;;;;;;;8.15;2.65;;;;;;;23.77;59.75;100818.81;2095434;28;20052;-73
2022/06/25 01:29:19;;;;;;;6.43;2.80;;;;;;;23.77;60.08;100829.59;2105811;28;20044;-74
2022/06/25 01:30:42;;;;;;;9.65;2.83;;;;;;;23.77;59.89;100832.28;2106599;28;20699;-74
2022/06/25 01:32:04;;;;;;;9.93;2.70;;;;;;;23.76;59.92;100838.63;2102152;28;20040;-74
2022/06/25 01:33:26;;;;;;;16.48;4.20;;;;;;;23.76;59.74;100845.88;2093549;28;20610;-73
2022/06/25 01:34:49;;;;;;;9.30;2.70;;;;;;;23.76;59.91;100837.78;2108721;28;20051;-74
2022/06/25 01:36:11;;;;;;;8.25;2.30;;;;;;;23.75;59.77;100841.41;2109084;28;20040;-74
2022/06/25 01:37:35;;;;;;;6.65;2.33;;;;;;;23.76;60.03;100827.00;2107749;28;20519;-73
2022/06/25 01:38:58;;;;;;;8.18;2.40;;;;;;;23.75;60.07;100822.53;2110436;28;20082;-73
2022/06/25 01:40:23;;;;;;;9.65;3.25;;;;;;;23.75;59.96;100809.03;2099801;28;20454;-73
2022/06/25 01:41:45;;;;;;;8.60;4.72;;;;;;;23.73;60.05;100795.63;2092834;28;20473;-74
2022/06/25 01:43:09;;;;;;;5.00;2.40;;;;;;;23.74;60.27;100794.69;2101195;28;20803;-73
2022/06/25 01:44:31;;;;;;;7.57;2.10;;;;;;;23.73;60.27;100782.13;2104210;28;20431;-73
2022/06/25 01:45:53;;;;;;;9.00;3.45;;;;;;;23.73;60.33;100778.56;2105968;28;20047;-73
2022/06/25 01:47:15;;;;;;;9.20;2.65;;;;;;;23.71;60.41;100775.91;2095946;28;20147;-73
2022/06/25 01:48:38;;;;;;;4.88;2.17;;;;;;;23.70;60.49;100771.44;2094724;28;20139;-74
2022/06/25 01:49:59;;;;;;;5.78;2.40;;;;;;;23.70;60.70;100770.56;2095942;28;20051;-73
2022/06/25 01:51:22;;;;;;;9.18;3.15;;;;;;;23.68;60.74;100770.66;2110731;27;20142;-74
2022/06/25 01:52:46;;;;;;;7.38;2.50;;;;;;;23.68;60.66;100773.34;2104121;28;20060;-74
2022/06/25 01:54:09;;;;;;;6.53;2.50;;;;;;;23.67;60.60;100778.78;2090819;28;20539;-74
2022/06/25 01:55:33;;;;;;;9.23;2.70;;;;;;;23.66;60.69;100777.91;2093485;28;20131;-73
2022/06/25 01:56:56;;;;;;;8.75;2.42;;;;;;;23.65;60.86;100797.72;2084838;28;20045;-73
2022/06/25 01:58:18;;;;;;;4.78;2.20;;;;;;;23.64;60.94;100801.34;2101935;28;20097;-73
2022/06/25 01:59:41;;;;;;;5.68;2.30;;;;;;;23.61;60.83;100801.47;2100473;28;20039;-74
2022/06/25 02:01:04;;;;;;;8.80;2.90;;;;;;;23.61;61.08;100803.28;2095497;28;20451;-73
2022/06/25 02:02:27;;;;;;;11.80;2.42;;;;;;;23.59;61.29;100802.47;2108556;28;20054;-73
2022/06/25 02:03:49;;;;;;;5.18;2.33;;;;;;;23.60;61.26;100815.00;2092743;28;21252;-73
2022/06/25 02:05:12;;;;;;;5.50;2.70;;;;;;;23.59;61.20;100815.94;2099897;28;20052;-74
2022/06/25 02:06:35;;;;;;;10.55;3.10;;;;;;;23.59;61.39;100814.13;2094796;28;20460;-73
2022/06/25 02:07:58;;;;;;;7.72;2.33;;;;;;;23.60;61.44;100821.28;2111444;28;20047;-74
2022/06/25 02:09:20;;;;;;;8.18;2.33;;;;;;;23.59;61.49;100807.84;2109679;28;20051;-73
2022/06/25 02:10:45;;;;;;;6.25;2.63;;;;;;;23.60;61.61;100815.88;2103732;28;20036;-73
2022/06/25 02:12:08;;;;;;;10.13;3.78;;;;;;;23.60;61.72;100813.19;2106159;28;20173;-73
2022/06/25 02:13:31;;;;;;;5.95;2.30;;;;;;;23.59;61.74;100807.84;2110797;28;20055;-73
2022/06/25 02:14:52;;;;;;;9.73;2.95;;;;;;;23.59;62.05;100803.34;2099819;28;20118;-73
2022/06/25 02:16:15;;;;;;;7.70;2.63;;;;;;;23.56;62.11;100813.38;2098800;28;20047;-74
2022/06/25 02:17:36;;;;;;;9.23;2.25;;;;;;;23.55;62.25;100806.22;2106793;28;20436;-73
2022/06/25 02:18:59;;;;;;;6.05;2.63;;;;;;;23.53;62.36;100808.06;2105355;28;20047;-73
2022/06/25 02:20:21;;;;;;;7.20;2.83;;;;;;;23.51;62.50;100810.81;2110391;28;20487;-73
2022/06/25 02:21:45;;;;;;;9.43;2.30;;;;;;;23.49;62.73;100811.84;2103500;28;20736;-73
2022/06/25 02:23:10;;;;;;;7.13;2.83;;;;;;;23.48;62.68;100821.72;2114317;27;20058;-73
2022/06/25 02:24:33;;;;;;;9.77;2.50;;;;;;;23.45;62.82;100821.78;2098960;28;20051;-73
2022/06/25 02:25:57;;;;;;;7.28;3.05;;;;;;;23.45;62.93;100824.50;2107087;28;20048;-73
2022/06/25 02:27:18;;;;;;;5.05;2.50;;;;;;;23.44;63.12;100825.41;2096167;28;20044;-73
2022/06/25 02:28:40;;;;;;;10.23;2.75;;;;;;;23.42;63.14;100825.50;2107264;28;20062;-73
2022/06/25 02:30:02;;;;;;;8.57;2.22;;;;;;;23.41;63.13;100823.75;2105560;28;20036;-73
2022/06/25 02:31:28;;;;;;;6.30;2.38;;;;;;;23.40;63.03;100826.47;2111650;28;20048;-73
2022/06/25 02:32:49;;;;;;;8.32;2.47;;;;;;;23.40;63.04;100829.19;2096139;28;20542;-74
2022/06/25 02:34:12;;;;;;;6.40;2.40;;;;;;;23.39;62.81;100828.28;2095077;28;20036;-73
2022/06/25 02:35:34;;;;;;;5.20;1.95;;;;;;;23.38;62.82;100836.44;2086837;28;20108;-73
2022/06/25 02:36:57;;;;;;;8.23;2.88;;;;;;;23.37;62.58;100840.03;2089282;28;20100;-74
2022/06/25 02:38:23;;;;;;;6.43;2.78;;;;;;;23.35;62.44;100836.56;2101850;28;20084;-73
2022/06/25 02:39:47;;;;;;;6.28;2.58;;;;;;;23.34;62.36;100832.97;2086620;28;20155;-73
2022/06/25 02:41:10;;;;;;;5.57;2.53;;;;;;;23.33;62.32;100839.28;2099381;28;20138;-73
2022/06/25 02:42:35;;;;;;;9.80;2.35;;;;;;;23.34;62.35;100842.88;2105260;28;20043;-73
2022/06/25 02:43:58;;;;;;;8.05;2.53;;;;;;;23.34;62.23;100850.94;2096685;28;20135;-74
2022/06/25 02:45:33;;;;;;;8.63;2.53;;;;;;;23.32;62.37;100842.03;2101433;28;20155;-73
2022/06/25 02:46:55;;;;;;;8.90;2.90;;;;;;;23.31;62.30;100841.16;2108426;28;20392;-74
2022/06/25 02:48:21;;;;;;;5.95;2.42;;;;;;;23.30;62.23;100834.00;2102709;28;20075;-73
2022/06/25 02:49:43;;;;;;;3.67;2.13;;;;;;;23.31;62.59;100837.56;2094923;28;20052;-73
2022/06/25 02:51:06;;;;;;;8.52;2.75;;;;;;;23.29;62.60;100831.38;2106654;28;20186;-73
2022/06/25 02:52:30;;;;;;;8.35;2.38;;;;;;;23.29;62.78;100834.06;2098765;28;20052;-73
2022/06/25 02:53:55;;;;;;;5.93;2.55;;;;;;;23.30;62.87;100830.44;2102218;28;20551;-73
2022/06/25 02:55:17;;;;;;;10.80;2.58;;;;;;;23.28;63.03;100829.63;2099711;28;20434;-73
2022/06/25 03:00:15;;;;;;;5.43;2.38;;;;;;;23.28;63.00;100830.50;2102573;28;20076;-73
2022/06/25 03:01:38;;;;;;;5.68;2.58;;;;;;;23.29;63.10;100832.28;2100494;28;20055;-73
2022/06/25 03:02:59;;;;;;;6.88;2.72;;;;;;;23.29;63.21;100832.28;2090142;28;20048;-73
2022/06/25 03:04:22;;;;;;;8.75;2.03;;;;;;;23.29;63.10;100834.97;2114671;27;20103;-73
2022/06/25 03:05:47;;;;;;;6.45;2.40;;;;;;;23.29;63.07;100836.78;2098472;28;20044;-74
2022/06/25 03:07:10;;;;;;;8.15;2.55;;;;;;;23.31;63.13;100837.56;2098707;28;20044;-73
2022/06/25 03:08:32;;;;;;;7.70;2.78;;;;;;;23.32;63.04;100839.34;2105272;28;20532;-74
2022/06/25 03:09:55;;;;;;;9.68;2.67;;;;;;;23.33;62.95;100852.75;2101825;28;20044;-73
2022/06/25 03:11:18;;;;;;;7.75;2.90;;;;;;;23.33;62.97;100850.06;2094946;28;20044;-72
2022/06/25 03:12:42;;;;;;;5.45;2.50;;;;;;;23.34;62.88;100851.84;2097351;28;20083;-73
2022/06/25 03:14:14;;;;;;;7.70;2.40;;;;;;;23.38;62.84;100857.97;2111061;28;20130;-73
2022/06/25 03:15:36;;;;;;;8.02;2.55;;;;;;;23.39;62.75;100866.03;2098869;28;20052;-73
2022/06/25 03:17:00;;;;;;;7.75;2.17;;;;;;;23.43;62.58;100864.97;2105275;28;20445;-73
2022/06/25 03:18:38;;;;;;;6.45;2.40;;;;;;;23.51;62.56;100870.13;2097710;28;20076;-73
2022/06/25 03:20:10;;;;;;;7.63;2.30;;;;;;;23.56;62.62;100873.56;2104557;28;20566;-73
2022/06/25 03:21:44;;;;;;;4.55;2.40;;;;;;;23.62;62.53;100878.72;2103824;28;20040;-74
2022/06/25 03:23:06;;;;;;;4.95;2.30;;;;;;;23.69;62.44;100872.16;2095005;28;20409;-74
2022/06/25 03:24:29;;;;;;;7.68;2.67;;;;;;;23.76;62.41;100883.59;2108624;28;20059;-73
2022/06/25 03:25:53;;;;;;;10.07;2.53;;;;;;;23.84;62.39;100884.19;2091821;28;20118;-73
2022/06/25 03:27:16;;;;;;;6.43;2.70;;;;;;;23.92;62.37;100889.28;2094882;28;20142;-74
2022/06/25 03:28:42;;;;;;;5.13;2.38;;;;;;;23.98;62.37;100889.06;2094847;28;20450;-73
2022/06/25 03:30:07;;;;;;;7.45;2.38;;;;;;;24.05;62.21;100879.81;2091211;28;20049;-73
2022/06/25 03:31:30;;;;;;;8.85;2.10;;;;;;;24.13;62.18;100885.78;2111694;27;20129;-73
2022/06/25 03:32:55;;;;;;;6.45;2.33;;;;;;;24.23;62.10;100877.31;2102830;28;20081;-73
2022/06/25 03:34:44;;;;;;;5.32;2.00;;;;;;;24.36;61.63;100883.09;2110917;28;20125;-73
2022/06/25 03:36:06;;;;;;;8.60;2.30;;;;;;;24.45;61.44;100881.88;2092676;28;20052;-73
2022/06/25 03:37:35;;;;;;;8.13;2.63;;;;;;;24.54;61.39;100881.50;2102870;28;20052;-73
2022/06/25 03:38:57;;;;;;;11.20;2.60;;;;;;;24.62;61.01;100880.25;2094615;28;20079;-74
2022/06/25 03:40:19;;;;;;;8.88;2.60;;;;;;;24.71;61.00;100883.50;2103119;28;22199;-73
2022/06/25 03:41:43;;;;;;;;;;;;;;;24.76;60.72;100876.97;2119794;27;20049;-73
2022/06/25 03:43:24;;;;;;;7.22;2.22;;;;;;;24.84;60.58;100872.16;2096820;28;19970;-73
2022/06/25 03:44:46;;;;;;;8.90;2.47;;;;;;;24.93;60.31;100868.22;2105997;28;20577;-73
2022/06/25 03:46:16;;;;;;;6.78;2.13;;;;;;;25.01;60.05;100868.75;2100227;28;20044;-73
2022/06/25 03:47:39;;;;;;;7.93;2.50;;;;;;;25.11;60.01;100877.38;2104754;28;20122;-73
2022/06/25 03:49:04;;;;;;;9.07;2.47;;;;;;;25.21;60.04;100876.91;2098837;28;20046;-73
2022/06/25 03:50:53;;;;;;;7.78;2.22;;;;;;;25.32;59.90;100881.88;2100928;28;20125;-74
2022/06/25 03:52:16;;;;;;;6.07;2.70;;;;;;;25.42;59.51;100884.09;2101419;28;20377;-73
2022/06/25 03:53:37;;;;;;;12.35;2.22;;;;;;;25.54;59.53;100879.06;2105219;28;20098;-73
2022/06/25 03:55:00;;;;;;;8.45;2.42;;;;;;;25.62;59.19;100883.25;2093825;28;20128;-74
2022/06/25 03:56:21;;;;;;;4.63;2.03;;;;;;;25.74;58.91;100876.38;2114789;27;20047;-73
2022/06/25 03:57:47;;;;;;;10.60;3.40;;;;;;;25.86;58.58;100889.38;2090729;28;20068;-74
2022/06/25 03:59:21;;;;;;;7.10;2.15;;;;;;;25.97;58.53;100883.47;2111817;28;20130;-73
2022/06/25 04:00:47;;;;;;;11.57;2.60;;;;;;;26.08;58.15;100878.44;2098332;28;20471;-73
2022/06/25 04:02:10;;;;;;;6.28;2.00;;;;;;;26.17;57.91;100881.59;2101278;28;20165;-73
2022/06/25 04:03:53;;;;;;;3.72;1.73;;;;;;;26.30;57.55;100886.47;2096127;28;20156;-73
2022/06/25 04:05:15;;;;;;;5.75;1.75;;;;;;;26.42;57.52;100889.47;2090319;28;20045;-73
2022/06/25 04:06:38;;;;;;;6.53;1.70;;;;;;;26.54;57.22;100888.88;2100597;28;20048;-73
2022/06/25 04:07:59;;;;;;;6.00;1.90;;;;;;;26.68;56.95;100901.75;2104290;28;20063;-73
2022/06/25 04:09:22;;;;;;;;;;;;;;;26.75;56.35;100895.06;2101463;28;20052;-73
2022/06/25 04:10:45;;;;;;;7.18;1.80;;;;;;;26.88;56.54;100900.75;2106086;28;19920;-74
2022/06/25 04:12:08;;;;;;;10.27;2.10;;;;;;;27.02;56.25;100892.84;2101848;28;20032;-74
2022/06/25 04:13:33;;;;;;;9.85;2.30;;;;;;;27.17;55.96;100894.81;2093894;28;20080;-73
2022/06/25 04:14:55;;;;;;;3.88;1.70;;;;;;;27.29;55.32;100896.00;2094397;28;20565;-73
2022/06/25 04:16:17;;;;;;;7.20;2.10;;;;;;;27.42;55.15;100897.13;2094327;28;20060;-74
2022/06/25 04:17:41;;;;;;;5.78;1.98;;;;;;;27.57;54.73;100890.91;2102088;28;20040;-73
2022/06/25 04:19:05;;;;;;;8.75;2.60;;;;;;;27.71;54.28;100893.75;2100145;28;20043;-73
2022/06/25 04:20:30;;;;;;;8.00;2.33;;;;;;;27.87;53.93;100891.13;2107403;28;20074;-74
2022/06/25 04:21:52;;;;;;;4.35;1.42;;;;;;;28.03;53.44;100892.03;2102052;28;20194;-74
2022/06/25 04:23:14;;;;;;;4.45;1.50;;;;;;;28.19;52.89;100896.66;2107491;28;20073;-73
2022/06/25 04:24:38;;;;;;;5.68;2.22;;;;;;;28.33;52.46;100903.09;2099906;28;20068;-73
2022/06/25 04:26:00;;;;;;;7.72;1.80;;;;;;;28.48;51.97;100899.50;2093018;28;20122;-73
2022/06/25 04:29:04;;;;;;;5.85;2.22;;;;;;;28.90;50.92;100908.91;2102638;28;20075;-74
2022/06/25 04:30:40;;;;;;;6.15;1.77;;;;;;;29.14;50.45;100910.22;2106486;28;20399;-74
2022/06/25 04:32:03;;;;;;;4.32;1.75;;;;;;;29.31;49.80;100918.22;2098498;28;20041;-73
2022/06/25 04:33:44;;;;;;;7.80;3.22;;;;;;;29.49;49.24;100912.66;2104742;28;20044;-73
2022/06/25 04:35:08;;;;;;;6.07;1.60;;;;;;;29.66;48.41;100907.09;2095987;28;20364;-74
2022/06/25 04:36:34;;;;;;;7.00;1.60;;;;;;;29.82;47.47;100912.44;2096031;28;20040;-73
2022/06/25 04:38:16;;;;;;;8.00;1.73;;;;;;;30.02;46.89;100915.72;2102599;28;20142;-74
2022/06/25 04:39:39;;;;;;;3.95;1.58;;;;;;;30.16;46.30;100908.53;2102642;28;20050;-73
2022/06/25 04:41:01;;;;;;;5.57;1.73;;;;;;;30.33;45.76;100905.59;2091281;28;20048;-74
2022/06/25 04:42:23;;;;;;;3.50;1.60;;;;;;;30.51;45.24;100901.72;2104476;28;20051;-74
2022/06/25 04:43:46;;;;;;;4.95;1.58;;;;;;;30.65;44.48;100909.88;2090560;28;20052;-73
2022/06/25 04:45:15;;;;;;;4.45;1.50;;;;;;;30.79;44.18;100903.50;2105996;28;20138;-73
2022/06/25 04:46:55;;;;;;;8.65;1.80;;;;;;;30.93;43.41;100899.84;2092320;28;20041;-74
2022/06/25 04:48:29;;;;;;;7.25;1.77;;;;;;;31.04;43.08;100911.81;2104566;28;20066;-73
2022/06/25 04:50:04;;;;;;;4.90;1.50;;;;;;;31.22;42.78;100909.72;2108126;28;20044;-73
2022/06/25 04:51:28;;;;;;;6.80;1.92;;;;;;;31.48;42.66;100914.28;2093823;28;20051;-73
2022/06/25 04:52:50;;;;;;;5.63;1.50;;;;;;;31.70;42.07;100900.03;2088902;28;20043;-74
2022/06/25 04:54:14;;;;;;;6.10;1.70;;;;;;;31.82;41.33;100904.63;2099400;28;20044;-73
2022/06/25 04:55:50;;;;;;;6.68;1.88;;;;;;;31.96;40.77;100911.84;2099443;28;20044;-74
2022/06/25 04:57:13;;;;;;;7.35;1.42;;;;;;;32.15;40.57;100909.59;2094052;28;20040;-74
2022/06/25 04:58:55;;;;;;;9.30;1.73;;;;;;;32.37;39.98;100904.28;2117331;28;20074;-73
2022/06/25 05:00:39;;;;;;;6.53;2.00;;;;;;;32.50;39.75;100909.72;2098795;28;20043;-74
2022/06/25 05:02:01;;;;;;;4.55;1.73;;;;;;;32.63;39.63;100906.97;2110436;28;20050;-74
2022/06/25 05:03:39;;;;;;;7.43;1.70;;;;;;;32.80;39.30;100910.25;2096102;28;20474;-74
2022/06/25 05:05:07;;;;;;;2.72;1.60;;;;;;;32.99;38.80;100917.94;2115416;28;20058;-73
2022/06/25 05:06:30;;;;;;;6.43;1.90;;;;;;;33.10;38.17;100911.63;2097877;28;20702;-74
2022/06/25 05:07:51;;;;;;;3.45;1.38;;;;;;;33.20;37.74;100916.34;2096127;28;20048;-74
2022/06/25 05:09:13;;;;;;;6.63;1.50;;;;;;;33.38;37.23;100904.97;2105413;28;20138;-74
2022/06/25 05:10:37;;;;;;;5.43;1.60;;;;;;;33.59;37.07;100912.38;2095976;28;20509;-74
2022/06/25 05:11:58;;;;;;;9.15;1.73;;;;;;;33.74;36.82;100902.09;2096105;28;20439;-74
2022/06/25 05:13:21;;;;;;;;;;;;;;;33.79;36.73;100904.50;2108381;28;20489;-74
2022/06/25 05:14:43;;;;;;;6.05;1.70;;;;;;;33.93;36.40;100904.28;2101660;28;19920;-74
2022/06/25 05:16:07;;;;;;;5.50;1.58;;;;;;;33.97;36.04;100898.41;2091918;28;20061;-74
2022/06/25 05:17:29;;;;;;;5.68;1.58;;;;;;;34.04;35.87;100897.94;2088196;28;20610;-74
2022/06/25 05:18:52;;;;;;;6.75;1.50;;;;;;;34.11;35.60;100902.78;2106700;28;20085;-74
2022/06/25 05:20:13;;;;;;;3.83;1.58;;;;;;;34.23;35.49;100900.97;2091730;28;20171;-74
2022/06/25 05:21:36;;;;;;;7.10;1.55;;;;;;;34.36;35.26;100908.06;2096973;28;20064;-74
2022/06/25 05:23:00;;;;;;;5.95;1.67;;;;;;;34.53;35.27;100909.41;2100607;28;20093;-74
2022/06/25 05:24:22;;;;;;;5.28;1.85;;;;;;;34.63;34.87;100913.16;2098315;28;20052;-74
2022/06/25 05:25:45;;;;;;;9.77;1.63;;;;;;;34.77;34.57;100917.53;2113759;28;20051;-74
2022/06/25 05:27:09;;;;;;;7.53;1.50;;;;;;;34.87;34.32;100917.63;2099369;28;20230;-74
2022/06/25 05:28:32;;;;;;;6.20;1.58;;;;;;;34.69;34.01;100925.50;2104261;28;20043;-74
2022/06/25 05:29:53;;;;;;;6.00;1.45;;;;;;;34.57;34.09;100921.03;2098377;28;20044;-74
2022/06/25 05:31:17;;;;;;;4.20;1.42;;;;;;;34.57;34.17;100919.16;2090814;28;20439;-74
2022/06/25 05:32:41;;;;;;;6.03;1.40;;;;;;;34.63;34.04;100921.38;2089815;28;20055;-74
2022/06/25 05:34:04;;;;;;;6.00;1.60;;;;;;;34.65;34.23;100922.13;2099442;28;20076;-74
2022/06/25 05:35:25;;;;;;;5.57;1.60;;;;;;;34.76;34.36;100929.50;2098617;28;20067;-74
2022/06/25 05:36:48;;;;;;;6.53;1.50;;;;;;;34.93;34.15;100933.56;2096907;28;20754;-75
2022/06/25 05:38:10;;;;;;;4.07;1.33;;;;;;;35.06;33.92;100924.19;2106127;28;20815;-74
2022/06/25 05:39:33;;;;;;;4.82;1.65;;;;;;;35.06;33.73;100921.44;2097401;28;20048;-74
2022/06/25 05:40:57;;;;;;;5.80;1.27;;;;;;;35.06;34.08;100923.31;2111986;28;20067;-74
2022/06/25 05:42:19;;;;;;;5.35;1.23;;;;;;;35.23;33.59;100916.44;2107414;28;20701;-74
2022/06/25 05:43:42;;;;;;;5.40;1.63;;;;;;;35.37;33.31;100930.75;2117011;27;20055;-74
2022/06/25 05:45:06;;;;;;;6.88;1.75;;;;;;;35.44;32.95;100920.09;2109781;28;20052;-74
2022/06/25 05:46:30;;;;;;;5.90;1.77;;;;;;;35.47;32.67;100919.81;2103354;28;20507;-74
2022/06/25 05:47:52;;;;;;;5.28;1.58;;;;;;;35.41;32.32;100920.34;2105095;28;20142;-75
2022/06/25 05:49:14;;;;;;;4.22;1.92;;;;;;;35.25;32.28;100925.44;2108119;28;20035;-74
2022/06/25 05:50:37;;;;;;;8.55;1.40;;;;;;;35.25;32.03;100923.53;2106379;28;20043;-74
2022/06/25 05:51:58;;;;;;;6.65;1.40;;;;;;;35.28;31.86;100925.16;2110392;28;20055;-74
2022/06/25 05:53:20;;;;;;;7.43;1.58;;;;;;;35.35;32.32;100929.13;2109194;28;20161;-74
2022/06/25 05:54:43;;;;;;;2.90;1.35;;;;;;;35.47;32.27;100930.81;2099555;28;20144;-74
2022/06/25 05:56:05;;;;;;;5.95;1.80;;;;;;;35.57;32.32;100929.03;2100408;28;20048;-74
2022/06/25 05:57:27;;;;;;;6.13;1.50;;;;;;;35.65;32.48;100925.59;2097256;28;20040;-75
2022/06/25 05:58:49;;;;;;;2.70;1.38;;;;;;;35.60;32.32;100919.63;2107861;28;20044;-75
2022/06/25 06:00:13;;;;;;;5.55;1.30;;;;;;;35.58;32.41;100923.38;2109814;28;20086;-74
2022/06/25 06:01:36;;;;;;;3.97;1.23;;;;;;;35.63;32.27;100930.38;2103246;28;20732;-75
2022/06/25 06:02:58;;;;;;;5.55;1.17;;;;;;;35.71;31.97;100938.84;2108708;28;20047;-74
2022/06/25 06:04:20;;;;;;;4.35;1.55;;;;;;;35.76;32.17;100942.06;2110626;27;20128;-74
2022/06/25 06:05:42;;;;;;;5.03;1.40;;;;;;;35.76;31.85;100929.19;2105941;28;20048;-74
2022/06/25 06:07:05;;;;;;;6.35;1.70;;;;;;;35.80;31.51;100938.03;2105680;28;20060;-75
2022/06/25 06:08:28;;;;;;;5.03;1.60;;;;;;;35.86;31.40;100943.00;2096474;28;20544;-75
2022/06/25 06:09:50;;;;;;;5.95;1.50;;;;;;;35.87;31.65;100939.25;2098540;28;20121;-75
2022/06/25 06:11:13;;;;;;;14.25;2.22;;;;;;;35.92;31.46;100939.69;2104449;28;20128;-74
2022/06/25 06:12:34;;;;;;;7.55;1.65;;;;;;;36.05;31.49;100936.75;2103381;28;20036;-75
2022/06/25 06:13:57;;;;;;;7.15;1.52;;;;;;;36.11;30.84;100942.56;2108414;28;20040;-74
2022/06/25 06:15:19;;;;;;;7.03;1.70;;;;;;;36.15;30.85;100945.94;2105613;28;20147;-75
2022/06/25 06:16:42;;;;;;;5.72;1.30;;;;;;;36.19;30.94;100942.81;2117225;27;20173;-74
2022/06/25 06:18:04;;;;;;;3.75;1.42;;;;;;;36.29;30.92;100945.63;2099741;28;20041;-75
2022/06/25 06:19:26;;;;;;;4.50;1.67;;;;;;;36.33;30.42;100939.69;2106818;28;20135;-74
2022/06/25 06:20:48;;;;;;;6.95;1.38;;;;;;;36.41;30.35;100943.63;2117326;27;20047;-74
2022/06/25 06:22:09;;;;;;;4.00;1.77;;;;;;;36.43;30.20;100938.88;2110038;28;20158;-74
2022/06/25 06:23:32;;;;;;;7.72;1.60;;;;;;;36.37;30.35;100942.16;2102909;28;20175;-76
2022/06/25 06:24:55;;;;;;;3.63;1.33;;;;;;;36.28;30.04;100941.13;2094577;28;20063;-75
2022/06/25 06:26:17;;;;;;;4.82;1.30;;;;;;;36.11;30.48;100941.69;2111241;27;20455;-76
2022/06/25 06:27:40;;;;;;;6.18;1.70;;;;;;;35.92;30.76;100936.94;2095105;28;20135;-75
2022/06/25 06:29:01;;;;;;;4.15;1.35;;;;;;;35.85;30.89;100933.00;2114452;27;20138;-76
2022/06/25 06:30:24;;;;;;;6.18;1.70;;;;;;;35.72;31.02;100935.94;2104547;28;20109;-75
2022/06/25 06:31:48;;;;;;;6.68;1.55;;;;;;;35.67;31.28;100940.06;2105557;28;20051;-76
2022/06/25 06:33:11;;;;;;;4.03;1.50;;;;;;;35.68;31.48;100939.06;2110558;28;20059;-74
2022/06/25 06:34:34;;;;;;;5.13;1.73;;;;;;;35.76;31.75;100948.44;2110854;28;20510;-75
2022/06/25 06:35:56;;;;;;;3.88;1.70;;;;;;;35.88;31.36;100944.63;2101908;28;20148;-75
2022/06/25 06:37:19;;;;;;;2.40;1.20;;;;;;;35.97;31.34;100942.94;2094729;28;20180;-74
2022/06/25 06:38:40;;;;;;;6.32;1.95;;;;;;;36.07;31.21;100946.59;2090636;28;20074;-75